Time;durP1;ratioP1;P1;durP2;ratioP2;P2;SDS_P1;SDS_P2;PMS_P1;PMS_P2;Temp;Humidity;BMP_temperature;BMP_pressure;BME280_temperature;BME280_humidity;BME280_pressure;Samples;Min_cycle;Max_cycle;Signal;HPM_P1;HPM_P2
2021/05/03 00:00:34;;;;;;;4.90;2.92;;;;;;;5.17;81.27;98714.31;5057213;28;45508;-75
2021/05/03 00:02:59;;;;;;;5.25;2.95;;;;;;;5.40;80.18;98720.56;5059084;28;45257;-76
2021/05/03 00:05:26;;;;;;;3.90;3.03;;;;;;;5.42;79.84;98716.03;5046976;28;45579;-75
2021/05/03 00:07:52;;;;;;;3.72;3.10;;;;;;;5.31;80.46;98708.91;5039694;28;46088;-74
2021/05/03 00:10:18;;;;;;;3.53;2.55;;;;;;;5.06;80.51;98699.28;5051479;28;45422;-75
2021/05/03 00:12:44;;;;;;;3.25;2.25;;;;;;;5.04;81.22;98706.47;5054005;28;45341;-75
2021/05/03 00:15:12;;;;;;;3.30;2.45;;;;;;;4.84;80.92;98711.31;5043370;28;45475;-75
2021/05/03 00:17:38;;;;;;;4.40;2.42;;;;;;;5.03;80.45;98712.69;5038744;28;45266;-75
2021/05/03 00:20:04;;;;;;;5.88;2.42;;;;;;;5.03;80.93;98710.88;5038263;28;45399;-75
2021/05/03 00:22:30;;;;;;;3.65;2.35;;;;;;;5.17;79.58;98707.25;5069936;28;45452;-74
2021/05/03 00:24:55;;;;;;;3.65;2.00;;;;;;;5.25;78.16;98707.53;5055760;28;45333;-75
2021/05/03 00:27:21;;;;;;;4.30;2.33;;;;;;;5.26;78.91;98703.94;5040493;28;46338;-75
2021/05/03 00:29:46;;;;;;;5.30;2.38;;;;;;;5.15;78.95;98710.94;5038112;28;45272;-75
2021/05/03 00:32:11;;;;;;;4.30;2.72;;;;;;;5.25;79.46;98717.22;5038401;28;45226;-74
2021/05/03 00:34:37;;;;;;;4.03;2.20;;;;;;;5.24;80.30;98723.47;5037876;28;45326;-75
2021/05/03 00:37:02;;;;;;;3.85;2.65;;;;;;;5.10;78.79;98725.28;5040395;28;45994;-75
2021/05/03 00:39:28;;;;;;;7.55;2.75;;;;;;;5.03;80.07;98720.59;5037508;28;45231;-75
2021/05/03 00:41:53;;;;;;;4.93;3.17;;;;;;;5.05;78.72;98719.50;5037773;28;45574;-75
2021/05/03 00:44:19;;;;;;;5.38;3.30;;;;;;;5.17;79.63;98712.53;5038035;28;45342;-75
2021/05/03 00:46:44;;;;;;;4.32;3.03;;;;;;;4.97;81.08;98711.31;5037762;28;45290;-74
2021/05/03 00:49:09;;;;;;;4.43;2.97;;;;;;;5.08;81.04;98713.19;5037944;28;45213;-75
2021/05/03 00:51:35;;;;;;;4.82;3.03;;;;;;;4.91;81.87;98709.13;5038117;28;45501;-75
2021/05/03 00:54:00;;;;;;;6.00;3.38;;;;;;;5.21;80.09;98711.34;5052992;28;45458;-76
2021/05/03 00:56:26;;;;;;;5.93;3.08;;;;;;;5.02;80.97;98714.47;5047651;28;45559;-76
2021/05/03 00:58:52;;;;;;;4.88;2.80;;;;;;;4.62;81.54;98712.84;5052703;28;45377;-75
2021/05/03 01:01:17;;;;;;;4.82;2.80;;;;;;;4.88;80.40;98706.69;5044956;28;45468;-76
2021/05/03 01:03:42;;;;;;;3.72;2.70;;;;;;;5.05;79.95;98716.06;5048089;28;45346;-76
2021/05/03 01:06:08;;;;;;;4.20;2.60;;;;;;;5.20;78.43;98719.38;5048309;28;45332;-76
2021/05/03 01:08:33;;;;;;;4.03;2.40;;;;;;;4.95;79.44;98719.34;5039678;28;45673;-75
2021/05/03 01:11:00;;;;;;;4.47;2.40;;;;;;;4.81;79.77;98711.53;5043799;28;45488;-75
2021/05/03 01:13:25;;;;;;;3.58;2.47;;;;;;;4.67;79.71;98723.06;5038519;28;45341;-75
2021/05/03 01:15:51;;;;;;;5.13;2.85;;;;;;;4.70;81.45;98716.72;5038427;28;45928;-75
2021/05/03 01:18:16;;;;;;;4.82;2.80;;;;;;;4.52;81.60;98717.91;5037386;28;45405;-76
2021/05/03 01:20:42;;;;;;;3.55;2.40;;;;;;;4.27;82.46;98718.75;5037776;28;45393;-76
2021/05/03 01:23:07;;;;;;;3.75;2.58;;;;;;;4.65;80.19;98719.69;5037392;28;45243;-76
2021/05/03 01:25:37;;;;;;;3.60;2.92;;;;;;;4.40;83.21;98718.75;5037177;28;45203;-75
2021/05/03 01:28:05;;;;;;;4.68;2.40;;;;;;;4.55;81.24;98719.47;5037038;28;45420;-75
2021/05/03 01:30:39;;;;;;;2.85;2.05;;;;;;;4.57;81.11;98704.41;5037671;28;45418;-75
2021/05/03 01:33:06;;;;;;;3.97;2.08;;;;;;;4.67;81.29;98707.25;5051450;28;45393;-76
2021/05/03 01:35:32;;;;;;;3.58;2.15;;;;;;;4.42;81.93;98705.47;5051423;28;45257;-75
2021/05/03 01:37:59;;;;;;;2.80;1.90;;;;;;;4.60;82.22;98711.28;5050581;28;45405;-75
2021/05/03 01:40:27;;;;;;;3.25;2.58;;;;;;;4.36;82.43;98704.94;5048933;28;45166;-75
2021/05/03 01:42:53;;;;;;;3.70;2.92;;;;;;;4.38;83.09;98715.38;5038255;28;45330;-75
2021/05/03 01:45:23;;;;;;;7.45;5.35;;;;;;;4.34;85.65;98720.03;5052645;28;46742;-75
2021/05/03 01:47:51;;;;;;;7.75;6.15;;;;;;;4.27;87.38;98718.75;5036937;28;45231;-76
2021/05/03 01:50:19;;;;;;;10.65;7.47;;;;;;;4.21;88.99;98716.53;5037321;28;45365;-75
2021/05/03 01:52:45;;;;;;;10.18;7.32;;;;;;;4.31;88.55;98714.09;5037152;28;45470;-76
2021/05/03 01:55:12;;;;;;;9.00;6.85;;;;;;;4.40;88.15;98712.63;5037327;28;46365;-75
2021/05/03 01:57:37;;;;;;;8.07;6.28;;;;;;;4.32;87.33;98710.53;5056997;28;46570;-76
2021/05/03 02:00:06;;;;;;;7.47;5.82;;;;;;;4.30;87.49;98710.63;5056444;28;45354;-75
2021/05/03 02:02:31;;;;;;;9.75;6.80;;;;;;;4.40;87.29;98713.47;5047773;28;45385;-75
2021/05/03 02:04:57;;;;;;;9.48;7.18;;;;;;;4.38;86.94;98715.38;5049966;28;47048;-75
2021/05/03 02:07:22;;;;;;;7.45;6.00;;;;;;;4.52;86.52;98722.31;5049627;28;45424;-75
2021/05/03 02:09:47;;;;;;;9.30;6.97;;;;;;;4.57;86.87;98720.22;5036826;28;45455;-75
2021/05/03 02:12:13;;;;;;;7.72;6.05;;;;;;;4.63;84.60;98717.16;5040323;28;45307;-75
2021/05/03 02:14:42;;;;;;;9.80;6.22;;;;;;;4.47;85.29;98714.75;5040216;28;45842;-75
2021/05/03 02:17:09;;;;;;;10.35;6.75;;;;;;;4.52;86.57;98717.06;5040578;28;45214;-75
2021/05/03 02:19:35;;;;;;;7.45;6.10;;;;;;;4.48;85.93;98713.81;5040291;28;45262;-75
2021/05/03 02:22:00;;;;;;;8.60;6.40;;;;;;;4.47;86.00;98704.22;5040601;28;45212;-75
2021/05/03 02:24:26;;;;;;;9.20;5.63;;;;;;;4.34;87.19;98696.31;5039695;28;45361;-75
2021/05/03 02:26:52;;;;;;;8.55;5.28;;;;;;;4.56;85.61;98701.91;5051715;28;45315;-75
2021/05/03 02:29:17;;;;;;;7.85;4.60;;;;;;;4.52;84.46;98696.00;5053615;28;45448;-75
2021/05/03 02:31:43;;;;;;;8.10;5.00;;;;;;;4.71;83.73;98697.34;5052137;28;45465;-75
2021/05/03 02:34:08;;;;;;;7.40;5.00;;;;;;;4.75;82.88;98693.53;5051668;28;47531;-75
2021/05/03 02:36:34;;;;;;;5.88;4.57;;;;;;;4.58;83.46;98700.81;5059876;28;45467;-75
2021/05/03 02:38:59;;;;;;;6.85;4.78;;;;;;;4.43;84.00;98702.75;5044849;28;45993;-74
2021/05/03 02:41:25;;;;;;;7.03;4.63;;;;;;;4.53;83.85;98702.94;5053383;28;45603;-75
2021/05/03 02:43:50;;;;;;;5.53;4.55;;;;;;;4.57;83.28;98693.88;5039631;28;45986;-75
2021/05/03 02:46:16;;;;;;;5.18;4.18;;;;;;;4.68;82.95;98693.97;5039847;28;45341;-74
2021/05/03 02:48:41;;;;;;;4.60;3.65;;;;;;;4.72;81.32;98697.25;5040030;28;45463;-75
2021/05/03 02:51:07;;;;;;;5.50;3.90;;;;;;;4.75;81.20;98697.03;5039805;28;45560;-74
2021/05/03 02:53:32;;;;;;;4.72;3.50;;;;;;;4.73;81.02;98695.44;5040461;28;46215;-75
2021/05/03 02:55:58;;;;;;;4.93;3.35;;;;;;;4.67;82.03;98707.25;5046166;28;45235;-75
2021/05/03 02:58:23;;;;;;;5.47;3.60;;;;;;;4.67;80.73;98702.81;5046291;28;45309;-76
2021/05/03 03:00:49;;;;;;;4.10;3.63;;;;;;;4.63;81.88;98703.97;5039999;28;45509;-75
2021/05/03 03:03:14;;;;;;;5.72;3.97;;;;;;;4.56;81.59;98702.72;5054962;28;47990;-75
2021/05/03 03:05:40;;;;;;;5.20;4.07;;;;;;;4.62;81.36;98697.03;5047481;28;45273;-75
2021/05/03 03:08:05;;;;;;;6.00;4.15;;;;;;;4.68;82.18;98699.22;5039560;28;45339;-75
2021/05/03 03:10:32;;;;;;;6.07;4.35;;;;;;;4.86;81.91;98698.91;5054660;28;45500;-74
2021/05/03 03:13:00;;;;;;;6.30;3.67;;;;;;;4.94;81.37;98698.34;5039283;28;45446;-75
2021/05/03 03:15:29;;;;;;;4.95;3.30;;;;;;;4.79;79.71;98697.63;5044443;28;45536;-75
2021/05/03 03:17:54;;;;;;;4.93;3.60;;;;;;;4.90;80.38;98699.53;5058274;28;45289;-75
2021/05/03 03:20:20;;;;;;;5.40;3.65;;;;;;;4.91;80.11;98695.94;5039442;28;45326;-75
2021/05/03 03:22:46;;;;;;;4.32;3.55;;;;;;;4.74;81.18;98695.34;5038107;28;45485;-75
2021/05/03 03:25:13;;;;;;;4.82;3.60;;;;;;;4.86;80.24;98690.16;5039176;28;45326;-76
2021/05/03 03:27:38;;;;;;;5.82;4.22;;;;;;;4.84;81.74;98687.59;5038967;28;45302;-75
2021/05/03 03:30:06;;;;;;;5.13;4.07;;;;;;;4.92;81.16;98687.94;5039460;28;45350;-76
2021/05/03 03:32:31;;;;;;;7.45;4.85;;;;;;;4.65;83.94;98685.44;5038923;28;45417;-75
2021/05/03 03:34:57;;;;;;;6.40;5.00;;;;;;;4.68;84.17;98687.88;5041868;28;45228;-74
2021/05/03 03:37:23;;;;;;;6.00;4.43;;;;;;;4.78;83.27;98693.31;5057718;28;45440;-75
2021/05/03 03:39:48;;;;;;;8.32;5.30;;;;;;;4.78;83.42;98690.69;5045279;28;45230;-75
2021/05/03 03:42:13;;;;;;;6.38;4.65;;;;;;;4.70;84.20;98696.50;5045425;28;45290;-75
2021/05/03 03:44:39;;;;;;;7.13;5.05;;;;;;;4.84;83.91;98692.88;5039050;28;45287;-75
2021/05/03 03:47:04;;;;;;;7.95;5.43;;;;;;;4.81;84.42;98701.84;5054476;28;45359;-75
2021/05/03 03:49:30;;;;;;;7.68;5.05;;;;;;;4.76;83.17;98698.72;5039053;28;45499;-74
2021/05/03 03:51:56;;;;;;;5.88;4.63;;;;;;;4.87;83.43;98702.38;5038764;28;45515;-76
2021/05/03 03:54:21;;;;;;;7.15;5.28;;;;;;;4.88;82.85;98694.38;5038441;28;45470;-74
2021/05/03 03:56:46;;;;;;;7.43;4.90;;;;;;;4.93;82.53;98694.03;5052149;28;45359;-76
2021/05/03 03:59:13;;;;;;;6.28;4.40;;;;;;;4.91;82.30;98706.47;5038870;28;45362;-75
2021/05/03 04:01:41;;;;;;;6.18;4.22;;;;;;;4.97;81.79;98711.31;5041964;28;45968;-75
2021/05/03 04:04:13;;;;;;;5.47;4.18;;;;;;;5.03;81.88;98710.03;5051669;28;45324;-76
2021/05/03 04:06:54;;;;;;;4.75;3.55;;;;;;;4.92;82.46;98719.56;5057164;28;45376;-75
2021/05/03 04:25:14;;;;;;;5.43;4.35;;;;;;;4.41;82.56;98730.13;5040438;28;45318;-74
2021/05/03 04:27:29;;;;;;;8.48;4.90;;;;;;;4.49;83.44;98735.72;5048367;28;45649;-75
2021/05/03 04:29:54;;;;;;;6.68;4.85;;;;;;;4.37;83.79;98742.66;5051812;28;45471;-75
2021/05/03 04:32:20;;;;;;;9.40;5.70;;;;;;;4.36;84.46;98741.81;5038120;28;45267;-75
2021/05/03 04:34:45;;;;;;;7.47;5.60;;;;;;;4.20;85.14;98749.06;5038757;28;45327;-75
2021/05/03 04:37:10;;;;;;;7.75;5.90;;;;;;;4.24;85.15;98742.66;5057133;28;45297;-75
2021/05/03 04:39:36;;;;;;;8.50;6.15;;;;;;;4.34;84.24;98748.97;5039891;28;45484;-75
2021/05/03 04:42:01;;;;;;;7.57;6.07;;;;;;;4.48;83.87;98760.38;5046398;28;45940;-75
2021/05/03 04:44:26;;;;;;;8.60;5.97;;;;;;;4.59;84.11;98760.47;5038250;28;45210;-75
2021/05/03 04:46:52;;;;;;;9.88;6.50;;;;;;;4.56;84.63;98765.13;5054609;28;45191;-76
2021/05/03 04:49:17;;;;;;;8.90;5.43;;;;;;;4.72;82.97;98767.53;5039285;28;45524;-75
2021/05/03 04:51:43;;;;;;;8.90;5.75;;;;;;;4.67;83.01;98766.06;5037752;28;45418;-75
2021/05/03 04:54:08;;;;;;;8.15;5.95;;;;;;;4.50;84.19;98764.59;5053198;28;46152;-75
2021/05/03 04:56:33;;;;;;;9.32;5.40;;;;;;;4.29;84.69;98766.88;5066533;28;45278;-75
2021/05/03 04:58:59;;;;;;;8.20;5.35;;;;;;;4.35;83.87;98762.97;5038089;28;45481;-76
2021/05/03 05:01:24;;;;;;;8.38;4.95;;;;;;;4.35;83.49;98768.25;5039035;28;45399;-75
2021/05/03 05:03:50;;;;;;;7.90;6.00;;;;;;;4.23;83.94;98768.13;5057873;28;45275;-76
2021/05/03 05:06:15;;;;;;;8.35;5.70;;;;;;;4.38;83.38;98774.16;5058988;27;45751;-79
2021/05/03 05:08:41;;;;;;;6.75;4.80;;;;;;;4.48;83.53;98765.63;5043263;28;45754;-78
2021/05/03 05:11:06;;;;;;;6.38;4.75;;;;;;;4.43;83.78;98767.75;5038688;28;45466;-79
2021/05/03 05:13:32;;;;;;;8.25;5.15;;;;;;;4.52;83.89;98782.91;5050224;28;45388;-80
2021/05/03 05:15:58;;;;;;;7.57;4.82;;;;;;;4.59;83.31;98780.72;5039444;28;45633;-80
2021/05/03 05:18:24;;;;;;;6.28;4.55;;;;;;;4.71;82.23;98793.03;5061376;28;46275;-87
2021/05/03 05:20:49;;;;;;;7.25;4.53;;;;;;;4.82;82.85;98785.25;5052884;28;47902;-83
2021/05/03 05:23:15;;;;;;;6.88;4.80;;;;;;;4.82;82.94;98787.88;5053341;28;45306;-83
2021/05/03 05:25:41;;;;;;;9.43;6.57;;;;;;;4.82;83.78;98787.88;5066721;28;45456;-82
2021/05/03 05:28:06;;;;;;;8.63;6.82;;;;;;;4.64;84.67;98786.50;5058690;28;45633;-79
2021/05/03 05:30:32;;;;;;;10.05;6.18;;;;;;;4.61;83.44;98790.19;5050646;28;45435;-84
2021/05/03 05:32:57;;;;;;;8.55;5.43;;;;;;;4.60;83.62;98790.31;5044149;28;45283;-84
2021/05/03 05:35:23;;;;;;;6.22;4.90;;;;;;;4.68;81.99;98795.91;5059015;28;45318;-81
2021/05/03 05:37:48;;;;;;;7.93;6.05;;;;;;;4.45;84.24;98790.41;5063440;28;45689;-81
2021/05/03 05:40:13;;;;;;;7.13;4.88;;;;;;;4.58;83.27;98793.03;5054902;28;45938;-84
2021/05/03 05:42:39;;;;;;;6.18;4.40;;;;;;;4.61;83.43;98781.47;5047604;28;45662;-84
2021/05/03 05:45:05;;;;;;;5.70;4.40;;;;;;;4.53;84.13;98779.34;5054844;28;45151;-84
2021/05/03 05:47:31;;;;;;;4.85;3.63;;;;;;;4.34;83.54;98793.75;5057153;28;45514;-78
2021/05/03 05:49:56;;;;;;;4.07;3.20;;;;;;;4.44;82.93;98801.03;5059879;28;45689;-78
2021/05/03 05:52:22;;;;;;;6.05;3.40;;;;;;;4.62;82.28;98796.31;5059607;28;45526;-81
2021/05/03 05:54:47;;;;;;;5.00;4.18;;;;;;;4.64;81.67;98795.25;5044229;28;45744;-80
2021/05/03 05:57:13;;;;;;;5.35;3.60;;;;;;;4.56;82.13;98804.63;5055528;28;45286;-80
2021/05/03 05:59:38;;;;;;;5.28;3.95;;;;;;;4.61;81.76;98805.16;5042601;28;45449;-80
2021/05/03 06:02:04;;;;;;;5.85;4.00;;;;;;;4.57;81.31;98803.69;5052474;28;45334;-81
2021/05/03 06:04:31;;;;;;;5.40;4.28;;;;;;;4.56;82.09;98802.84;5051233;28;45439;-79
2021/05/03 06:06:57;;;;;;;5.38;3.55;;;;;;;4.45;82.26;98811.47;5050230;28;45623;-79
2021/05/03 06:09:22;;;;;;;6.93;5.22;;;;;;;4.74;81.64;98807.78;5055454;28;45398;-80
2021/05/03 06:11:47;;;;;;;5.53;4.57;;;;;;;4.74;81.30;98806.00;5055351;28;45398;-80
2021/05/03 06:14:13;;;;;;;7.63;6.22;;;;;;;4.91;81.97;98810.13;5039886;28;45685;-81
2021/05/03 06:16:38;;;;;;;9.43;8.20;;;;;;;4.87;80.59;98797.25;5039936;28;45525;-81
2021/05/03 06:19:04;;;;;;;9.27;7.18;;;;;;;5.00;81.48;98805.16;5039708;28;45410;-80
2021/05/03 06:21:30;;;;;;;8.27;6.65;;;;;;;5.02;80.44;98803.25;5039862;28;45273;-80
2021/05/03 06:23:55;;;;;;;7.80;6.60;;;;;;;5.13;79.90;98806.00;5039383;28;45439;-81
2021/05/03 06:26:21;;;;;;;7.43;5.25;;;;;;;5.14;80.79;98809.44;5048565;28;45551;-80
2021/05/03 06:28:46;;;;;;;11.65;7.20;;;;;;;5.26;80.42;98812.09;5041144;28;45432;-81
2021/05/03 06:31:12;;;;;;;9.40;6.68;;;;;;;5.25;80.76;98820.09;5039612;28;45483;-81
2021/05/03 06:33:37;;;;;;;7.60;5.63;;;;;;;5.44;81.00;98819.63;5039814;28;45361;-80
2021/05/03 06:36:04;;;;;;;10.48;7.35;;;;;;;5.52;80.57;98816.47;5048947;28;45516;-80
2021/05/03 06:38:29;;;;;;;9.05;6.38;;;;;;;5.56;80.43;98812.66;5043282;28;47540;-82
2021/05/03 06:40:55;;;;;;;7.82;6.55;;;;;;;5.54;80.16;98810.09;5058808;28;45353;-80
2021/05/03 06:43:20;;;;;;;7.28;5.90;;;;;;;5.57;79.72;98808.19;5049053;28;45428;-79
2021/05/03 06:45:46;;;;;;;6.80;5.45;;;;;;;5.33;79.66;98804.59;5046521;28;45502;-82
2021/05/03 06:48:12;;;;;;;7.88;5.57;;;;;;;5.50;79.13;98813.09;5037386;28;47011;-82
2021/05/03 06:50:46;;;;;;;10.57;6.43;;;;;;;5.52;78.80;98809.38;5058046;28;45348;-80
2021/05/03 06:53:14;;;;;;;9.18;5.95;;;;;;;5.54;80.37;98809.28;5054755;28;45350;-82
2021/05/03 06:55:41;;;;;;;7.43;5.47;;;;;;;5.58;78.66;98813.38;5038593;28;45286;-82
2021/05/03 06:58:07;;;;;;;6.85;5.10;;;;;;;5.48;78.79;98809.72;5036998;28;47450;-83
2021/05/03 07:00:38;;;;;;;7.13;5.35;;;;;;;5.61;78.71;98820.22;5037456;28;45500;-83
2021/05/03 07:03:03;;;;;;;8.57;5.18;;;;;;;5.56;78.93;98810.00;5054350;28;45302;-81
2021/05/03 07:05:29;;;;;;;7.53;5.30;;;;;;;5.67;78.86;98817.13;5045565;28;45357;-82
2021/05/03 07:07:54;;;;;;;9.82;6.32;;;;;;;5.87;77.69;98814.88;5052056;28;46051;-83
2021/05/03 07:10:20;;;;;;;8.52;5.97;;;;;;;5.78;78.88;98816.38;5058055;28;45408;-82
2021/05/03 07:12:47;;;;;;;8.23;5.40;;;;;;;5.74;77.78;98813.09;5040861;28;45389;-84
2021/05/03 07:15:14;;;;;;;9.20;5.60;;;;;;;5.77;77.61;98820.81;5038574;28;45345;-82
2021/05/03 07:17:40;;;;;;;8.82;5.70;;;;;;;5.93;78.17;98814.41;5038729;28;46104;-84
2021/05/03 07:20:08;;;;;;;7.47;5.57;;;;;;;6.00;78.42;98815.66;5038656;28;45411;-84
2021/05/03 07:22:34;;;;;;;10.10;6.07;;;;;;;6.01;78.34;98814.72;5041642;28;45278;-86
2021/05/03 07:25:01;;;;;;;9.15;6.43;;;;;;;6.22;78.24;98803.50;5051566;28;45388;-83
2021/05/03 07:27:26;;;;;;;11.68;8.15;;;;;;;6.57;77.66;98805.28;5038503;28;46454;-85
2021/05/03 07:29:51;;;;;;;8.25;7.28;;;;;;;7.15;75.98;98807.91;5052374;28;45361;-81
2021/05/03 07:32:17;;;;;;;9.70;7.30;;;;;;;7.95;74.42;98809.56;5039033;28;45356;-82
2021/05/03 07:34:42;;;;;;;10.40;6.72;;;;;;;9.59;66.24;98811.66;5040019;28;45578;-84
2021/05/03 07:37:08;;;;;;;6.70;5.88;;;;;;;11.43;59.18;98809.06;5058867;28;45393;-83
2021/05/03 07:39:34;;;;;;;6.30;5.40;;;;;;;11.11;60.55;98806.84;5051598;28;45440;-84
2021/05/03 07:41:59;;;;;;;8.38;5.28;;;;;;;10.18;64.28;98806.44;5045549;28;45293;-85
2021/05/03 07:44:26;;;;;;;5.82;4.60;;;;;;;9.48;66.56;98817.06;5057512;28;45434;-84
2021/05/03 07:46:52;;;;;;;5.47;4.53;;;;;;;10.69;62.62;98806.25;5058187;28;46044;-83
2021/05/03 07:49:18;;;;;;;5.93;4.85;;;;;;;10.22;63.46;98815.81;5058359;28;45239;-81
2021/05/03 07:51:43;;;;;;;6.78;5.47;;;;;;;9.57;66.13;98810.97;5057380;28;45443;-84
2021/05/03 07:54:09;;;;;;;8.55;5.40;;;;;;;9.37;67.86;98827.81;5056985;28;45748;-83
2021/05/03 07:56:35;;;;;;;6.22;5.30;;;;;;;9.85;67.55;98826.25;5052877;28;47275;-83
2021/05/03 07:59:00;;;;;;;6.95;4.50;;;;;;;15.13;51.08;98816.63;5041996;28;45247;-84
2021/05/03 08:01:25;;;;;;;7.70;4.15;;;;;;;19.27;39.82;98814.03;5039910;28;45425;-83
2021/05/03 08:03:51;;;;;;;4.05;3.63;;;;;;;20.65;37.11;98828.38;5057261;28;45211;-85
2021/05/03 08:06:17;;;;;;;4.78;4.05;;;;;;;20.89;35.44;98828.81;5039335;28;48419;-85
2021/05/03 08:08:44;;;;;;;4.90;3.83;;;;;;;22.80;33.09;98830.25;5050151;28;45490;-85
2021/05/03 08:11:10;;;;;;;5.50;3.85;;;;;;;22.74;29.49;98829.28;5039440;28;45381;-85
2021/05/03 08:13:36;;;;;;;4.70;3.53;;;;;;;22.81;31.24;98831.94;5046485;28;45454;-86
2021/05/03 08:16:02;;;;;;;4.78;3.60;;;;;;;23.23;31.45;98825.09;5039393;28;46859;-86
2021/05/03 08:18:29;;;;;;;4.85;3.00;;;;;;;22.89;30.37;98825.41;5052117;28;45897;-88
2021/05/03 08:20:56;;;;;;;3.45;3.15;;;;;;;23.48;29.15;98825.06;5056788;28;45509;-85
2021/05/03 08:23:22;;;;;;;5.05;2.95;;;;;;;23.88;29.56;98821.03;5046969;28;45544;-85
2021/05/03 08:25:52;;;;;;;3.50;2.85;;;;;;;23.68;29.59;98819.38;5056016;28;47420;-85
2021/05/03 08:28:18;;;;;;;3.83;2.90;;;;;;;23.99;28.03;98828.38;5045049;28;45314;-87
2021/05/03 08:30:45;;;;;;;3.58;2.60;;;;;;;23.76;28.31;98821.78;5053280;28;45242;-85
2021/05/03 08:33:11;;;;;;;4.57;2.80;;;;;;;24.85;29.14;98818.34;5040399;28;45357;-85
2021/05/03 08:35:37;;;;;;;4.82;2.97;;;;;;;23.93;27.82;98815.72;5049206;28;45509;-85
2021/05/03 08:38:04;;;;;;;4.13;2.80;;;;;;;24.08;28.91;98809.09;5052931;28;45313;-85
2021/05/03 08:40:32;;;;;;;3.35;2.63;;;;;;;23.49;30.03;98806.88;5057693;28;45410;-86
2021/05/03 08:43:02;;;;;;;4.53;2.88;;;;;;;24.31;28.53;98811.03;5037775;28;45598;-86
2021/05/03 08:45:31;;;;;;;4.65;2.65;;;;;;;23.66;27.24;98807.91;5046044;28;48403;-87
2021/05/03 08:50:29;;;;;;;4.78;2.63;;;;;;;24.09;26.16;98808.84;5046065;28;45261;-85
2021/05/03 08:52:57;;;;;;;;;;;;;;;23.05;29.48;98801.47;5052881;28;45432;-87
2021/05/03 08:55:22;;;;;;;4.90;2.72;;;;;;;22.99;27.68;98798.59;5038883;28;45562;-87
2021/05/03 08:57:48;;;;;;;4.03;2.78;;;;;;;23.89;27.67;98784.66;5055824;28;45271;-85
2021/05/03 09:00:16;;;;;;;3.22;2.35;;;;;;;23.92;28.56;98786.06;5055761;28;45597;-85
2021/05/03 09:02:46;;;;;;;5.25;2.60;;;;;;;24.05;28.09;98785.91;5052898;28;45496;-86
2021/05/03 09:05:13;;;;;;;3.65;2.42;;;;;;;22.40;30.28;98793.44;5045093;28;47643;-84
2021/05/03 09:07:56;;;;;;;6.03;2.60;;;;;;;23.00;28.05;98784.00;5047948;28;45230;-86
2021/05/03 09:10:23;;;;;;;3.47;2.47;;;;;;;23.15;27.89;98785.50;5049463;28;45318;-85
2021/05/03 09:12:49;;;;;;;4.40;2.40;;;;;;;24.33;28.04;98779.84;5036984;28;45337;-85
2021/05/03 09:15:24;;;;;;;4.38;2.30;;;;;;;22.87;26.13;98784.94;5050446;28;46097;-88
2021/05/03 09:17:50;;;;;;;4.93;2.60;;;;;;;24.08;27.45;98781.91;5036996;28;45207;-85
2021/05/03 09:20:19;;;;;;;3.70;2.20;;;;;;;23.67;28.50;98778.91;5036232;28;45429;-88
2021/05/03 09:23:04;;;;;;;2.50;2.28;;;;;;;23.99;27.89;98768.63;5050599;28;45653;-87
2021/05/03 09:25:43;;;;;;;3.00;2.63;;;;;;;23.97;26.59;98775.34;5036646;28;46419;-87
2021/05/03 09:28:27;;;;;;;6.65;2.75;;;;;;;23.85;26.90;98759.84;5050143;28;45453;-87
2021/05/03 09:30:55;;;;;;;4.47;2.10;;;;;;;23.65;31.24;98759.28;5041188;28;45500;-84
2021/05/03 09:33:35;;;;;;;3.60;2.30;;;;;;;23.50;27.51;98755.09;5036994;28;45622;-87
2021/05/03 09:36:04;;;;;;;2.70;2.10;;;;;;;23.80;26.26;98748.00;5050272;28;48020;-87
2021/05/03 09:38:29;;;;;;;5.18;2.28;;;;;;;22.29;27.26;98756.25;5036524;28;45370;-86
2021/05/03 09:41:13;;;;;;;3.47;2.30;;;;;;;21.20;33.92;98746.19;5050271;28;45289;-84
2021/05/03 09:43:41;;;;;;;3.88;2.60;;;;;;;20.49;29.37;98749.41;5038402;28;45620;-82
2021/05/03 09:46:30;;;;;;;4.20;2.40;;;;;;;20.25;30.33;98743.56;5051067;28;45586;-85
2021/05/03 09:48:57;;;;;;;5.50;2.28;;;;;;;20.60;31.69;98747.13;5036548;28;45457;-87
2021/05/03 09:51:30;;;;;;;4.05;2.10;;;;;;;20.25;35.77;98743.56;5036849;28;45243;-85
2021/05/03 09:54:28;;;;;;;3.10;2.40;;;;;;;20.19;34.35;98738.19;5036365;28;45588;-82
2021/05/03 09:57:06;;;;;;;5.25;2.35;;;;;;;19.59;35.01;98731.63;5058947;28;46548;-82
2021/05/03 09:59:47;;;;;;;3.70;2.05;;;;;;;20.00;30.83;98737.13;5049715;28;45395;-83
2021/05/03 10:02:21;;;;;;;4.05;2.60;;;;;;;19.65;32.01;98721.88;5045836;28;45452;-86
2021/05/03 10:04:57;;;;;;;3.67;2.50;;;;;;;19.79;33.01;98726.25;5043298;28;45230;-83
2021/05/03 10:07:25;;;;;;;3.33;2.35;;;;;;;18.92;31.11;98721.31;5048618;28;48099;-84
2021/05/03 10:09:56;;;;;;;3.08;2.35;;;;;;;19.07;30.26;98709.63;5049392;28;45538;-85
2021/05/03 10:12:22;;;;;;;2.97;2.00;;;;;;;18.50;30.63;98706.97;5036304;28;45382;-84
2021/05/03 10:14:47;;;;;;;3.58;2.00;;;;;;;19.08;35.28;98709.44;5049923;28;45431;-84
2021/05/03 10:17:16;;;;;;;2.85;1.95;;;;;;;19.14;34.01;98705.09;5052893;28;47896;-85
2021/05/03 10:19:42;;;;;;;3.60;2.10;;;;;;;19.34;31.84;98709.75;5040698;28;45301;-84
2021/05/03 10:22:15;;;;;;;3.13;1.92;;;;;;;19.15;32.09;98706.78;5045588;28;45344;-83
2021/05/03 10:24:41;;;;;;;3.83;2.20;;;;;;;19.34;31.09;98697.06;5035866;28;45395;-86
2021/05/03 10:27:06;;;;;;;2.70;1.90;;;;;;;18.68;34.33;98701.09;5035903;28;46181;-86
2021/05/03 10:29:42;;;;;;;3.17;2.22;;;;;;;18.66;31.89;98700.47;5052802;28;45767;-83
2021/05/03 10:32:14;;;;;;;2.97;2.25;;;;;;;19.04;32.49;98694.69;5044357;28;45458;-81
2021/05/03 10:34:47;;;;;;;3.35;2.63;;;;;;;18.52;31.85;98699.53;5040034;28;45421;-83
2021/05/03 10:37:34;;;;;;;4.60;3.00;;;;;;;18.21;31.81;98690.81;5047350;28;46725;-82
2021/05/03 10:40:19;;;;;;;2.80;2.10;;;;;;;18.86;32.64;98697.06;5039221;28;45356;-82
2021/05/03 10:43:08;;;;;;;3.50;2.20;;;;;;;18.37;30.68;98691.56;5034076;28;45244;-83
2021/05/03 10:48:43;;;;;;;3.58;2.30;;;;;;;18.64;35.45;98689.88;5039311;28;45606;-82
2021/05/03 10:51:35;;;;;;;6.47;2.30;;;;;;;19.03;35.41;98686.81;5054908;28;45338;-85
2021/05/03 10:56:49;;;;;;;2.58;1.95;;;;;;;18.39;34.52;98681.41;5039671;28;45206;-89
2021/05/03 10:59:16;;;;;;;3.30;2.00;;;;;;;18.56;32.19;98676.56;5039255;28;46514;-89
2021/05/03 11:01:56;;;;;;;3.03;2.17;;;;;;;17.74;32.19;98674.25;5043062;28;45443;-89
2021/05/03 11:04:23;;;;;;;2.28;1.80;;;;;;;18.17;34.75;98661.81;5056447;28;45459;-90
2021/05/03 11:06:48;;;;;;;2.55;1.90;;;;;;;18.36;33.03;98660.28;5039256;28;45468;-85
2021/05/03 11:09:32;;;;;;;8.18;1.92;;;;;;;18.48;32.59;98650.63;5044139;28;45699;-86
2021/05/03 11:12:01;;;;;;;2.72;1.60;;;;;;;17.87;31.17;98656.56;5049888;28;45243;-84
2021/05/03 11:14:31;;;;;;;2.35;1.23;;;;;;;17.27;30.08;98662.19;5039453;28;45262;-87
2021/05/03 11:17:10;;;;;;;2.13;1.67;;;;;;;17.43;34.70;98653.03;5038945;28;45317;-86
2021/05/03 11:20:00;;;;;;;3.25;1.63;;;;;;;17.77;34.34;98643.44;5038842;28;46210;-89
2021/05/03 11:22:45;;;;;;;;;;;;;;;17.29;30.82;98644.81;5039288;28;45429;-84
2021/05/03 11:25:23;;;;;;;2.53;1.30;;;;;;;16.87;29.84;98644.50;5038847;28;45485;-89
2021/05/03 11:28:01;;;;;;;2.47;1.20;;;;;;;17.29;30.83;98633.25;5048850;28;45258;-89
2021/05/03 11:32:59;;;;;;;1.30;1.02;;;;;;;17.16;28.91;98626.69;5038719;28;45420;-86
2021/05/03 11:38:09;;;;;;;1.77;0.90;;;;;;;16.67;29.04;98624.63;5054116;28;45330;-89
2021/05/03 11:41:10;;;;;;;1.52;1.20;;;;;;;17.19;33.76;98622.81;5051769;28;46598;-87
2021/05/03 11:46:34;;;;;;;2.22;1.55;;;;;;;16.95;33.14;98615.88;5038548;28;45496;-86
2021/05/03 11:49:00;;;;;;;;;;;;;;;16.68;32.70;98608.31;5049920;28;45713;-86
2021/05/03 11:51:26;;;;;;;2.60;1.60;;;;;;;17.05;36.11;98611.91;5047759;28;45374;-87
2021/05/03 11:53:52;;;;;;;2.53;1.52;;;;;;;16.96;34.51;98604.97;5041745;28;45396;-84
2021/05/03 11:56:20;;;;;;;2.67;2.00;;;;;;;16.88;34.09;98599.69;5047936;28;45317;-87
2021/05/03 11:58:48;;;;;;;2.40;1.70;;;;;;;16.74;33.81;98596.00;5041821;28;45532;-88
2021/05/03 12:01:16;;;;;;;3.38;1.70;;;;;;;16.74;35.50;98594.13;5037982;28;45231;-87
2021/05/03 12:03:45;;;;;;;2.88;1.40;;;;;;;17.03;39.00;98592.47;5054331;28;45369;-87
2021/05/03 12:06:39;;;;;;;4.83;1.77;;;;;;;17.01;34.35;98593.66;5049763;28;45243;-88
2021/05/03 12:09:07;;;;;;;3.28;1.77;;;;;;;16.91;34.03;98584.03;5038006;28;45262;-84
2021/05/03 12:11:35;;;;;;;2.60;1.50;;;;;;;16.99;34.19;98577.75;5037692;28;46662;-87
2021/05/03 12:14:00;;;;;;;1.67;1.38;;;;;;;16.92;33.63;98576.81;5047436;28;45298;-86